Portada
METAR-TAF:

METAR-TAF

Aeroports :

Corrientes, Argentina

latitud: 27-27S, longitud: 058-46W, altitud: 62 m

Observació

L'informe es va fer fa 50 minuts, a les 07:00 UTC
Vent 7 kt del Sud-Est
Temperatura 21°C
Humitat 94%
Pressió 1009 hPa
Visibilitat 10 km o més
sense núvols per sota de 1500 mi sense presència de cumulonimbus.

METAR: SARC 230700Z 14007KT CAVOK 21/20 Q1009

Hora: 04:50 (07:50 UTC)


TAF: manca

Observacions i pronòstics meteorològics de més de 4000 aeroports (METAR i TAF).

Les estacions disponibles són els punts grocs i vermells al mapa.

Posi el ratolí al punt desitjat per veure el nom de l'estació.

Feu clic per veure les observacions i els pronòstics meteorològics.

Per canviar el mapa: feu clic els botons verds amb una creu de color negre per apropar; al botó verd amb un guió per allunyar la imatge; o en les fletxes verdes per a mapes adjacents.


METAR-TAF: